createdAt,value
2022-10-18T00:01:02.288Z,9.41
2022-10-18T00:03:39.753Z,9.41
2022-10-18T00:06:11.956Z,9.39
2022-10-18T00:08:40.016Z,9.34
2022-10-18T00:11:08.122Z,9.32
2022-10-18T00:13:36.412Z,9.31
2022-10-18T00:16:10.247Z,9.30
2022-10-18T00:18:38.107Z,9.28
2022-10-18T00:21:08.664Z,9.23
2022-10-18T00:23:36.807Z,9.24
2022-10-18T00:26:14.699Z,9.26
2022-10-18T00:28:43.335Z,9.27
2022-10-18T00:31:18.484Z,9.27
2022-10-18T00:33:49.609Z,9.22
2022-10-18T00:36:17.810Z,9.20
2022-10-18T00:38:46.243Z,9.15
2022-10-18T00:41:20.018Z,9.09
2022-10-18T00:43:58.838Z,9.10
2022-10-18T00:46:30.594Z,9.22
2022-10-18T00:49:01.534Z,9.26
2022-10-18T00:51:35.930Z,9.35
2022-10-18T00:54:04.507Z,9.60
2022-10-18T00:56:33.679Z,9.80
2022-10-18T00:59:01.865Z,9.95
2022-10-18T01:01:29.953Z,10.02
2022-10-18T01:03:58.139Z,10.03
2022-10-18T01:06:28.356Z,9.90
2022-10-18T01:09:07.934Z,9.79
2022-10-18T01:11:44.837Z,9.74
2022-10-18T01:14:27.001Z,9.73
2022-10-18T01:16:57.724Z,9.74
2022-10-18T01:19:48.548Z,9.75
2022-10-18T01:22:27.821Z,9.70
2022-10-18T01:24:58.705Z,9.66
2022-10-18T01:27:43.337Z,9.63
2022-10-18T01:30:38.183Z,9.59
2022-10-18T01:33:20.537Z,9.62
2022-10-18T01:35:55.105Z,9.62
2022-10-18T01:38:25.525Z,9.58
2022-10-18T01:40:55.567Z,9.50
2022-10-18T01:43:25.122Z,9.51
2022-10-18T01:45:55.818Z,9.55
2022-10-18T01:48:24.099Z,9.56
2022-10-18T01:50:52.806Z,9.54
2022-10-18T01:53:26.542Z,9.54
2022-10-18T01:56:41.837Z,9.52
2022-10-18T01:59:09.595Z,9.50
2022-10-18T02:01:46.998Z,9.54
2022-10-18T02:04:34.149Z,9.58
2022-10-18T02:07:09.850Z,9.65
2022-10-18T02:09:46.832Z,9.72
2022-10-18T02:12:16.849Z,9.88
2022-10-18T02:14:45.893Z,10.07
2022-10-18T02:17:16.321Z,10.23
2022-10-18T02:19:53.970Z,10.31
2022-10-18T02:22:25.748Z,10.45
2022-10-18T02:24:57.610Z,10.58
2022-10-18T02:27:25.859Z,10.75
2022-10-18T02:29:54.147Z,10.91
2022-10-18T02:32:32.830Z,11.03
2022-10-18T02:35:11.338Z,11.15
2022-10-18T02:37:40.492Z,11.22
2022-10-18T02:40:10.572Z,11.26
2022-10-18T02:42:48.144Z,11.28
2022-10-18T02:45:16.954Z,11.24
2022-10-18T02:47:44.963Z,11.14
2022-10-18T02:50:13.385Z,11.04
2022-10-18T02:52:41.285Z,10.94
2022-10-18T02:55:09.726Z,10.84
2022-10-18T02:57:37.873Z,10.79
2022-10-18T03:00:06.895Z,10.79
2022-10-18T03:02:34.902Z,10.79
2022-10-18T03:05:03.063Z,10.75
2022-10-18T03:07:31.312Z,10.66
2022-10-18T03:09:59.418Z,10.62
2022-10-18T03:12:27.453Z,10.60
2022-10-18T03:14:55.339Z,10.52
2022-10-18T03:17:23.264Z,10.37
2022-10-18T03:19:51.307Z,10.21
2022-10-18T03:22:19.460Z,10.03
2022-10-18T03:24:47.913Z,9.88
2022-10-18T03:27:15.743Z,9.81
2022-10-18T03:29:43.592Z,9.72
2022-10-18T03:32:11.464Z,9.61
2022-10-18T03:34:39.348Z,9.38
2022-10-18T03:37:07.869Z,9.27
2022-10-18T03:39:35.737Z,9.23
2022-10-18T03:42:03.625Z,9.21
2022-10-18T03:44:31.515Z,9.17
2022-10-18T03:46:59.438Z,9.14
2022-10-18T03:49:27.343Z,9.19
2022-10-18T03:51:55.220Z,9.22
2022-10-18T03:54:23.038Z,9.19
2022-10-18T03:56:50.896Z,9.15
2022-10-18T03:59:18.796Z,9.05
2022-10-18T04:01:46.757Z,8.89
2022-10-18T04:04:15.047Z,8.69
2022-10-18T04:06:42.936Z,8.53
2022-10-18T04:09:10.805Z,8.43
2022-10-18T04:11:38.685Z,8.29
2022-10-18T04:14:06.799Z,8.16
2022-10-18T04:19:07.431Z,8.17
2022-10-18T04:21:35.445Z,8.08
2022-10-18T04:24:03.920Z,8.04
2022-10-18T04:26:31.926Z,7.99
2022-10-18T04:28:59.812Z,7.86
2022-10-18T04:31:27.742Z,7.76
2022-10-18T04:33:55.675Z,7.71
2022-10-18T04:36:23.516Z,7.68
2022-10-18T04:38:51.479Z,7.67
2022-10-18T04:41:19.288Z,7.62
2022-10-18T04:43:47.168Z,7.60
2022-10-18T04:46:15.013Z,7.59
2022-10-18T04:48:42.844Z,7.55
2022-10-18T04:51:10.679Z,7.51
2022-10-18T04:53:38.619Z,7.47
2022-10-18T04:56:07.058Z,7.46
2022-10-18T04:58:34.995Z,7.44
2022-10-18T05:01:07.309Z,7.43
2022-10-18T05:03:35.703Z,7.58
2022-10-18T05:06:03.817Z,7.88
2022-10-18T05:08:34.001Z,8.19
2022-10-18T05:11:03.426Z,8.47
2022-10-18T05:13:31.551Z,8.67
2022-10-18T05:16:00.482Z,8.64
2022-10-18T05:18:28.557Z,8.43
2022-10-18T05:21:02.239Z,8.27
2022-10-18T05:23:30.275Z,8.29
2022-10-18T05:26:02.348Z,8.52
2022-10-18T05:28:45.655Z,8.81
2022-10-18T05:31:13.610Z,9.10
2022-10-18T05:33:41.450Z,9.32
2022-10-18T05:36:10.285Z,9.51
2022-10-18T05:38:42.273Z,9.71
2022-10-18T05:41:10.701Z,9.88
2022-10-18T05:43:39.560Z,10.02
2022-10-18T05:46:13.608Z,10.17
2022-10-18T05:48:51.056Z,10.33
2022-10-18T05:51:19.308Z,10.48
2022-10-18T05:53:47.300Z,10.60
2022-10-18T05:56:15.099Z,10.69
2022-10-18T05:58:43.187Z,10.78
2022-10-18T06:01:11.101Z,10.88
2022-10-18T06:03:39.004Z,10.97
2022-10-18T06:06:10.740Z,11.03
2022-10-18T06:08:40.649Z,11.12
2022-10-18T06:11:12.989Z,11.21
2022-10-18T06:13:42.873Z,11.30
2022-10-18T06:16:12.114Z,11.37
2022-10-18T06:18:40.617Z,11.46
2022-10-18T06:21:09.417Z,11.53
2022-10-18T06:23:37.312Z,11.59
2022-10-18T06:26:07.650Z,11.66
2022-10-18T06:28:36.684Z,11.74
2022-10-18T06:31:06.279Z,11.81
2022-10-18T06:33:35.537Z,11.86
2022-10-18T06:36:13.085Z,11.92
2022-10-18T06:38:41.423Z,12.00
2022-10-18T06:41:09.898Z,12.05
2022-10-18T06:43:37.825Z,12.10
2022-10-18T06:46:08.425Z,12.15
2022-10-18T06:48:37.226Z,12.20
2022-10-18T06:51:06.964Z,12.22
2022-10-18T06:53:43.807Z,12.26
2022-10-18T06:56:16.513Z,12.34
2022-10-18T06:58:44.606Z,12.46
2022-10-18T07:01:16.315Z,12.55
2022-10-18T07:03:45.793Z,12.62
2022-10-18T07:06:15.612Z,12.68
2022-10-18T07:08:44.099Z,12.74
2022-10-18T07:11:20.873Z,12.80
2022-10-18T07:13:48.713Z,12.87
2022-10-18T07:16:18.959Z,12.92
2022-10-18T07:18:51.146Z,13.00
2022-10-18T07:21:21.476Z,13.09
2022-10-18T07:23:50.098Z,13.21
2022-10-18T07:26:29.955Z,13.33
2022-10-18T07:29:16.060Z,13.44
2022-10-18T07:31:43.939Z,13.53
2022-10-18T07:34:13.229Z,13.59
2022-10-18T07:36:41.552Z,13.66
2022-10-18T07:39:10.253Z,13.72
2022-10-18T07:41:38.310Z,13.77
2022-10-18T07:44:06.401Z,13.82
2022-10-18T07:46:34.464Z,13.90
2022-10-18T07:49:02.344Z,13.96
2022-10-18T07:51:32.874Z,14.03
2022-10-18T07:54:00.727Z,14.09
2022-10-18T07:56:28.647Z,14.13
2022-10-18T07:58:57.158Z,14.16
2022-10-18T08:01:25.739Z,14.21
2022-10-18T08:03:54.778Z,14.27
2022-10-18T08:06:23.636Z,14.35
2022-10-18T08:08:52.402Z,14.42
2022-10-18T08:11:22.992Z,14.49
2022-10-18T08:13:51.777Z,14.57
2022-10-18T08:16:22.570Z,14.66
2022-10-18T08:18:51.128Z,14.75
2022-10-18T08:21:20.919Z,14.84
2022-10-18T08:23:49.293Z,14.93
2022-10-18T08:26:20.596Z,15.03
2022-10-18T08:28:54.130Z,15.11
2022-10-18T08:31:26.764Z,15.21
2022-10-18T08:33:57.139Z,15.30
2022-10-18T08:36:25.262Z,15.41
2022-10-18T08:38:53.110Z,15.54
2022-10-18T08:41:29.807Z,15.63
2022-10-18T08:44:16.525Z,15.73
2022-10-18T08:46:51.106Z,15.80
2022-10-18T08:49:30.257Z,15.88
2022-10-18T08:51:58.677Z,15.99
2022-10-18T08:54:39.655Z,16.09
2022-10-18T08:57:15.824Z,16.13
2022-10-18T08:59:44.259Z,16.22
2022-10-18T09:02:54.573Z,16.29
2022-10-18T09:05:30.784Z,16.34
2022-10-18T09:08:09.741Z,16.42
2022-10-18T09:10:49.539Z,16.52
2022-10-18T09:13:55.332Z,16.58
2022-10-18T09:16:32.534Z,16.64
2022-10-18T09:19:21.830Z,16.70
2022-10-18T09:22:00.953Z,16.76
2022-10-18T09:24:46.560Z,16.82
2022-10-18T09:27:18.342Z,16.93
2022-10-18T09:30:05.549Z,17.05
2022-10-18T09:32:43.516Z,17.13
2022-10-18T09:35:19.610Z,17.20
2022-10-18T09:37:47.699Z,17.29
2022-10-18T09:40:29.109Z,17.38
2022-10-18T09:43:01.442Z,17.49
2022-10-18T09:45:33.164Z,17.60
2022-10-18T09:48:08.725Z,17.70
2022-10-18T09:50:55.410Z,17.83
2022-10-18T09:53:54.642Z,17.94
2022-10-18T09:56:29.732Z,18.05
2022-10-18T09:58:57.598Z,18.14
2022-10-18T10:01:28.913Z,18.26
2022-10-18T10:03:57.227Z,18.33
2022-10-18T10:06:26.813Z,18.34
2022-10-18T10:08:59.868Z,18.36
2022-10-18T10:11:45.913Z,18.38
2022-10-18T10:14:23.158Z,18.49
2022-10-18T10:16:54.031Z,18.63
2022-10-18T10:19:27.692Z,18.70
2022-10-18T10:22:00.703Z,18.80
2022-10-18T10:24:47.570Z,18.83
2022-10-18T10:27:24.777Z,18.88
2022-10-18T10:29:57.695Z,18.90
2022-10-18T10:32:30.110Z,18.89
2022-10-18T10:34:58.843Z,18.96
2022-10-18T10:37:32.090Z,19.03
2022-10-18T10:40:19.802Z,19.05
2022-10-18T10:43:08.723Z,19.12
2022-10-18T10:46:10.170Z,19.29
2022-10-18T10:48:47.515Z,19.39
2022-10-18T10:51:18.929Z,19.41
2022-10-18T10:54:01.214Z,19.43
2022-10-18T10:56:32.672Z,19.47
2022-10-18T10:59:15.923Z,19.52
2022-10-18T11:01:45.300Z,19.57
2022-10-18T11:04:29.541Z,19.67
2022-10-18T11:07:04.586Z,19.73
2022-10-18T11:10:10.848Z,19.78
2022-10-18T11:12:47.896Z,19.80
2022-10-18T11:15:40.460Z,19.85
2022-10-18T11:18:19.792Z,19.96
2022-10-18T11:20:53.108Z,20.04
2022-10-18T11:23:25.646Z,20.10
2022-10-18T11:25:56.358Z,20.18
2022-10-18T11:28:32.894Z,20.27
2022-10-18T11:31:21.339Z,20.41
2022-10-18T11:34:10.413Z,20.60
2022-10-18T11:36:45.324Z,20.69
2022-10-18T11:39:42.168Z,20.68
2022-10-18T11:42:44.446Z,20.63
2022-10-18T11:45:45.759Z,20.66
2022-10-18T11:48:34.477Z,20.81
2022-10-18T11:51:10.585Z,20.97
2022-10-18T11:54:03.319Z,21.01
2022-10-18T11:56:48.737Z,21.10
2022-10-18T11:59:25.708Z,21.16
2022-10-18T12:02:16.097Z,21.28
2022-10-18T12:04:59.833Z,21.40
2022-10-18T12:07:53.367Z,21.46
2022-10-18T12:10:31.724Z,21.44
2022-10-18T12:13:23.466Z,21.43
2022-10-18T12:15:52.290Z,21.47
2022-10-18T12:18:23.842Z,21.43
2022-10-18T12:20:55.450Z,21.38
2022-10-18T12:23:33.445Z,21.37
2022-10-18T12:26:04.086Z,21.46
2022-10-18T12:28:38.455Z,21.55
2022-10-18T12:31:25.666Z,21.64
2022-10-18T12:33:58.877Z,21.67
2022-10-18T12:36:57.567Z,21.72
2022-10-18T12:39:43.381Z,21.86
2022-10-18T12:42:20.209Z,22.00
2022-10-18T12:44:49.258Z,22.04
2022-10-18T12:47:25.626Z,22.04
2022-10-18T12:49:59.087Z,22.14
2022-10-18T12:52:29.987Z,22.15
2022-10-18T12:55:21.142Z,22.20
2022-10-18T12:57:52.100Z,22.22
2022-10-18T13:00:31.967Z,22.35
2022-10-18T13:03:18.134Z,22.29
2022-10-18T13:05:54.737Z,22.34
2022-10-18T13:08:29.284Z,22.38
2022-10-18T13:11:09.131Z,22.36
2022-10-18T13:13:52.929Z,22.44
2022-10-18T13:16:20.839Z,22.55
2022-10-18T13:18:59.697Z,22.61
2022-10-18T13:21:42.775Z,22.57
2022-10-18T13:24:30.547Z,22.51
2022-10-18T13:27:35.933Z,22.52
2022-10-18T13:30:42.067Z,22.52
2022-10-18T13:33:35.630Z,22.57
2022-10-18T13:36:22.914Z,22.60
2022-10-18T13:38:55.933Z,22.71
2022-10-18T13:41:47.057Z,22.87
2022-10-18T13:44:28.856Z,23.04
2022-10-18T13:46:56.619Z,23.09
2022-10-18T13:49:39.791Z,23.09
2022-10-18T13:52:38.203Z,22.96
2022-10-18T13:55:21.367Z,22.80
2022-10-18T13:58:04.303Z,22.73
2022-10-18T14:01:02.307Z,22.72
2022-10-18T14:04:01.679Z,22.79
2022-10-18T14:06:37.397Z,23.01
2022-10-18T14:09:45.305Z,23.10
2022-10-18T14:12:28.998Z,23.06
2022-10-18T14:15:05.820Z,22.90
2022-10-18T14:17:44.848Z,22.76
2022-10-18T14:20:29.433Z,22.62
2022-10-18T14:23:14.114Z,22.46
2022-10-18T14:25:42.730Z,22.22
2022-10-18T14:28:15.096Z,21.98
2022-10-18T14:31:06.358Z,21.70
2022-10-18T14:33:48.082Z,21.56
2022-10-18T14:36:22.423Z,21.51
2022-10-18T14:39:05.704Z,21.39
2022-10-18T14:41:35.857Z,21.15
2022-10-18T14:44:31.542Z,21.15
2022-10-18T14:47:13.114Z,21.25
2022-10-18T14:49:45.770Z,21.31
2022-10-18T14:52:17.458Z,21.43
2022-10-18T14:54:45.988Z,21.59
2022-10-18T14:57:24.517Z,21.78
2022-10-18T15:00:02.051Z,22.01
2022-10-18T15:02:32.715Z,22.33
2022-10-18T15:05:21.190Z,22.55
2022-10-18T15:07:51.980Z,22.48
2022-10-18T15:10:27.465Z,22.36
2022-10-18T15:13:16.745Z,22.11
2022-10-18T15:15:45.128Z,21.84
2022-10-18T15:18:21.447Z,21.76
2022-10-18T15:21:08.339Z,21.72
2022-10-18T15:23:36.320Z,21.47
2022-10-18T15:26:11.195Z,21.07
2022-10-18T15:28:53.155Z,20.55
2022-10-18T15:31:26.544Z,20.15
2022-10-18T15:34:07.839Z,19.81
2022-10-18T15:36:36.085Z,19.50
2022-10-18T15:39:15.455Z,19.27
2022-10-18T15:41:50.537Z,19.05
2022-10-18T15:44:23.082Z,18.84
2022-10-18T15:46:56.867Z,18.64
2022-10-18T15:49:24.728Z,18.48
2022-10-18T15:52:17.081Z,18.35
2022-10-18T15:54:44.874Z,18.21
2022-10-18T15:57:13.120Z,18.10
2022-10-18T15:59:54.091Z,17.99
2022-10-18T16:02:22.017Z,17.88
2022-10-18T16:04:50.017Z,17.81
2022-10-18T16:07:17.817Z,17.70
2022-10-18T16:09:45.741Z,17.63
2022-10-18T16:12:16.238Z,17.53
2022-10-18T16:14:44.089Z,17.44
2022-10-18T16:17:17.020Z,17.34
2022-10-18T16:19:44.868Z,17.24
2022-10-18T16:24:46.045Z,17.06
2022-10-18T16:27:14.811Z,16.99
2022-10-18T16:29:42.695Z,16.91
2022-10-18T16:32:10.507Z,16.83
2022-10-18T16:34:38.341Z,16.76
2022-10-18T16:37:06.540Z,16.69
2022-10-18T16:39:35.462Z,16.61
2022-10-18T16:42:03.557Z,16.54
2022-10-18T16:44:31.542Z,16.51
2022-10-18T16:46:59.526Z,16.47
2022-10-18T16:49:27.415Z,16.43
2022-10-18T16:51:55.712Z,16.39
2022-10-18T16:54:23.717Z,16.34
2022-10-18T16:56:51.643Z,16.33
2022-10-18T16:59:37.423Z,16.32
2022-10-18T17:02:09.170Z,16.29
2022-10-18T17:04:36.957Z,16.28
2022-10-18T17:07:05.264Z,16.27
2022-10-18T17:09:34.981Z,16.26
2022-10-18T17:12:02.808Z,16.26
2022-10-18T17:14:30.726Z,16.26
2022-10-18T17:17:52.345Z,16.26
2022-10-18T17:20:24.355Z,16.29
2022-10-18T17:22:54.014Z,16.31
2022-10-18T17:28:05.033Z,16.36
2022-10-18T17:30:34.060Z,16.35
2022-10-18T17:33:01.876Z,16.36
2022-10-18T17:35:30.019Z,16.38
2022-10-18T17:37:57.935Z,16.39
2022-10-18T17:40:25.770Z,16.40
2022-10-18T17:42:54.537Z,16.41
2022-10-18T17:45:22.645Z,16.43
2022-10-18T17:47:50.533Z,16.45
2022-10-18T17:50:18.758Z,16.46
2022-10-18T17:52:48.015Z,16.47
2022-10-18T17:55:16.465Z,16.49
2022-10-18T17:57:44.334Z,16.53
2022-10-18T18:00:13.098Z,16.58
2022-10-18T18:02:42.737Z,16.59
2022-10-18T18:05:11.030Z,16.62
2022-10-18T18:07:38.846Z,16.64
2022-10-18T18:10:06.897Z,16.67
2022-10-18T18:12:35.049Z,16.71
2022-10-18T18:15:03.580Z,16.71
2022-10-18T18:17:34.494Z,16.71
2022-10-18T18:20:14.184Z,16.70
2022-10-18T18:22:44.222Z,16.72
2022-10-18T18:25:12.415Z,16.73
2022-10-18T18:27:40.914Z,16.70
2022-10-18T18:30:09.033Z,16.70
2022-10-18T18:32:37.932Z,16.69
2022-10-18T18:35:06.113Z,16.67
2022-10-18T18:37:33.970Z,16.65
2022-10-18T18:40:01.847Z,16.64
2022-10-18T18:42:29.768Z,16.63
2022-10-18T18:44:57.709Z,16.60
2022-10-18T18:47:27.181Z,16.59
2022-10-18T18:49:54.983Z,16.58
2022-10-18T18:52:23.008Z,16.57
2022-10-18T18:54:50.823Z,16.55
2022-10-18T18:57:18.672Z,16.54
2022-10-18T18:59:46.538Z,16.53
2022-10-18T19:02:14.411Z,16.51
2022-10-18T19:04:42.414Z,16.48
2022-10-18T19:07:10.306Z,16.47
2022-10-18T19:09:40.114Z,16.43
2022-10-18T19:12:08.102Z,16.41
2022-10-18T19:14:35.993Z,16.39
2022-10-18T19:17:07.162Z,16.39
2022-10-18T19:19:35.219Z,16.41
2022-10-18T19:22:08.467Z,16.42
2022-10-18T19:24:36.564Z,16.40
2022-10-18T19:27:11.865Z,16.36
2022-10-18T19:29:40.977Z,16.34
2022-10-18T19:32:13.466Z,16.29
2022-10-18T19:34:41.645Z,16.31
2022-10-18T19:37:12.203Z,16.29
2022-10-18T19:39:40.107Z,16.27
2022-10-18T19:42:14.715Z,16.25
2022-10-18T19:44:45.241Z,16.21
2022-10-18T19:47:14.438Z,16.18
2022-10-18T19:49:43.106Z,16.21
2022-10-18T19:52:12.421Z,16.12
2022-10-18T19:54:40.363Z,16.03
2022-10-18T19:57:08.342Z,15.88
2022-10-18T19:59:36.285Z,15.68
2022-10-18T20:02:04.843Z,15.40
2022-10-18T20:04:34.926Z,15.18
2022-10-18T20:07:03.024Z,14.84
2022-10-18T20:09:31.107Z,14.63
2022-10-18T20:11:59.021Z,14.42
2022-10-18T20:14:26.891Z,14.25
2022-10-18T20:16:54.768Z,14.16
2022-10-18T20:19:22.617Z,14.11
2022-10-18T20:21:50.465Z,13.92
2022-10-18T20:24:18.402Z,13.91
2022-10-18T20:26:46.273Z,13.85
2022-10-18T20:29:14.396Z,13.76
2022-10-18T20:31:42.274Z,13.79
2022-10-18T20:34:12.021Z,13.65
2022-10-18T20:36:40.518Z,13.58
2022-10-18T20:39:09.189Z,13.55
2022-10-18T20:41:41.142Z,13.47
2022-10-18T20:44:14.019Z,13.37
2022-10-18T20:46:42.500Z,13.28
2022-10-18T20:49:13.815Z,13.19
2022-10-18T20:51:42.246Z,13.16
2022-10-18T20:54:10.894Z,13.12
2022-10-18T20:56:39.195Z,13.06
2022-10-18T20:59:09.839Z,13.02
2022-10-18T21:01:39.586Z,13.02
2022-10-18T21:04:09.662Z,12.94
2022-10-18T21:06:41.132Z,12.91
2022-10-18T21:09:20.188Z,12.92
2022-10-18T21:11:50.469Z,12.86
2022-10-18T21:14:20.749Z,12.81
2022-10-18T21:16:50.441Z,12.80
2022-10-18T21:19:26.821Z,12.76
2022-10-18T21:21:56.940Z,12.71
2022-10-18T21:24:25.933Z,12.69
2022-10-18T21:26:54.855Z,12.66
2022-10-18T21:29:27.050Z,12.62
2022-10-18T21:31:56.022Z,12.60
2022-10-18T21:34:23.933Z,12.59
2022-10-18T21:36:51.865Z,12.53
2022-10-18T21:41:50.769Z,12.47
2022-10-18T21:44:18.708Z,12.47
2022-10-18T21:46:46.984Z,12.47
2022-10-18T21:49:15.742Z,12.41
2022-10-18T21:51:44.063Z,12.38
2022-10-18T21:54:14.573Z,12.32
2022-10-18T21:56:42.748Z,12.26
2022-10-18T21:59:14.228Z,12.24
2022-10-18T22:01:44.253Z,12.19
2022-10-18T22:04:24.014Z,12.19
2022-10-18T22:06:52.236Z,12.20
2022-10-18T22:09:21.430Z,12.17
2022-10-18T22:11:52.305Z,12.14
2022-10-18T22:14:20.933Z,12.11
2022-10-18T22:16:48.840Z,12.09
2022-10-18T22:19:16.899Z,12.05
2022-10-18T22:21:44.796Z,12.01
2022-10-18T22:24:12.649Z,12.01
2022-10-18T22:26:42.569Z,11.99
2022-10-18T22:29:16.818Z,11.98
2022-10-18T22:31:47.329Z,11.97
2022-10-18T22:34:19.021Z,11.95
2022-10-18T22:36:46.878Z,11.93
2022-10-18T22:39:15.670Z,11.90
2022-10-18T22:41:44.066Z,11.84
2022-10-18T22:44:13.457Z,11.76
2022-10-18T22:46:42.102Z,11.69
2022-10-18T22:49:11.648Z,11.65
2022-10-18T22:51:40.476Z,11.60
2022-10-18T22:54:08.863Z,11.58
2022-10-18T22:56:36.727Z,11.59
2022-10-18T22:59:04.543Z,11.58
2022-10-18T23:01:32.434Z,11.62
2022-10-18T23:04:01.220Z,11.64
2022-10-18T23:06:31.937Z,11.67
2022-10-18T23:09:02.404Z,11.70
2022-10-18T23:11:30.523Z,11.73
2022-10-18T23:13:58.970Z,11.78
2022-10-18T23:16:27.828Z,11.85
2022-10-18T23:18:57.523Z,11.88
2022-10-18T23:21:28.135Z,11.92
2022-10-18T23:23:56.977Z,11.94
2022-10-18T23:26:27.545Z,11.95
2022-10-18T23:28:55.870Z,11.94
2022-10-18T23:31:29.690Z,11.94
2022-10-18T23:34:00.424Z,11.97
2022-10-18T23:36:28.465Z,12.00
2022-10-18T23:38:56.647Z,12.00
2022-10-18T23:41:25.126Z,12.00
2022-10-18T23:43:53.628Z,12.02
2022-10-18T23:46:22.020Z,12.04
2022-10-18T23:48:50.323Z,12.05
2022-10-18T23:51:18.356Z,12.06
2022-10-18T23:53:46.566Z,12.07
2022-10-18T23:56:16.392Z,12.04
2022-10-18T23:58:45.252Z,12.04
